sensor_id;sensor_type;location;lat;lon;timestamp;pressure;altitude;pressure_sealevel;temperature;humidity
13068;BME280;6600;51.362;6.686;2023-03-03T00:01:17;101887.22;;;1.80;100.00
13068;BME280;6600;51.362;6.686;2023-03-03T00:03:43;101883.03;;;1.78;100.00
13068;BME280;6600;51.362;6.686;2023-03-03T00:06:12;101891.94;;;1.77;100.00
13068;BME280;6600;51.362;6.686;2023-03-03T00:08:38;101892.50;;;1.80;100.00
13068;BME280;6600;51.362;6.686;2023-03-03T00:11:04;101898.09;;;1.87;100.00
13068;BME280;6600;51.362;6.686;2023-03-03T00:13:34;101891.97;;;1.86;100.00
13068;BME280;6600;51.362;6.686;2023-03-03T00:18:43;101893.41;;;1.90;100.00
13068;BME280;6600;51.362;6.686;2023-03-03T00:21:28;101888.09;;;1.90;100.00
13068;BME280;6600;51.362;6.686;2023-03-03T00:26:37;101890.31;;;1.85;100.00
13068;BME280;6600;51.362;6.686;2023-03-03T00:29:22;101908.03;;;1.94;100.00
13068;BME280;6600;51.362;6.686;2023-03-03T00:31:50;101920.13;;;1.97;100.00
13068;BME280;6600;51.362;6.686;2023-03-03T00:34:25;101907.06;;;1.95;100.00
13068;BME280;6600;51.362;6.686;2023-03-03T00:36:54;101915.31;;;2.02;100.00
13068;BME280;6600;51.362;6.686;2023-03-03T00:39:46;101909.56;;;1.97;100.00
13068;BME280;6600;51.362;6.686;2023-03-03T00:42:16;101909.06;;;2.03;100.00
13068;BME280;6600;51.362;6.686;2023-03-03T00:47:37;101906.00;;;2.08;100.00
13068;BME280;6600;51.362;6.686;2023-03-03T00:52:46;101918.22;;;1.99;100.00
13068;BME280;6600;51.362;6.686;2023-03-03T00:55:17;101916.00;;;2.04;100.00
13068;BME280;6600;51.362;6.686;2023-03-03T00:57:43;101921.03;;;2.07;100.00
13068;BME280;6600;51.362;6.686;2023-03-03T01:00:09;101919.53;;;2.14;100.00
13068;BME280;6600;51.362;6.686;2023-03-03T01:02:35;101922.97;;;2.05;100.00
13068;BME280;6600;51.362;6.686;2023-03-03T01:05:00;101916.59;;;2.08;100.00
13068;BME280;6600;51.362;6.686;2023-03-03T01:07:25;101918.25;;;2.09;100.00
13068;BME280;6600;51.362;6.686;2023-03-03T01:09:51;101919.63;;;2.03;100.00
13068;BME280;6600;51.362;6.686;2023-03-03T01:12:16;101915.13;;;1.94;100.00
13068;BME280;6600;51.362;6.686;2023-03-03T01:14:41;101920.41;;;1.94;100.00
13068;BME280;6600;51.362;6.686;2023-03-03T01:17:09;101917.75;;;1.94;100.00
13068;BME280;6600;51.362;6.686;2023-03-03T01:19:34;101922.41;;;2.01;100.00
13068;BME280;6600;51.362;6.686;2023-03-03T01:22:00;101930.28;;;1.92;100.00
13068;BME280;6600;51.362;6.686;2023-03-03T01:24:25;101921.81;;;1.98;100.00
13068;BME280;6600;51.362;6.686;2023-03-03T01:26:51;101921.03;;;2.07;100.00
13068;BME280;6600;51.362;6.686;2023-03-03T01:29:16;101921.59;;;2.11;100.00
13068;BME280;6600;51.362;6.686;2023-03-03T01:31:41;101920.91;;;2.09;100.00
13068;BME280;6600;51.362;6.686;2023-03-03T01:34:07;101919.09;;;2.09;100.00
13068;BME280;6600;51.362;6.686;2023-03-03T01:36:33;101918.56;;;2.15;100.00
13068;BME280;6600;51.362;6.686;2023-03-03T01:38:59;101922.94;;;1.95;100.00
13068;BME280;6600;51.362;6.686;2023-03-03T01:41:28;101929.69;;;2.09;100.00
13068;BME280;6600;51.362;6.686;2023-03-03T01:43:57;101930.44;;;2.00;100.00
13068;BME280;6600;51.362;6.686;2023-03-03T01:46:54;101922.72;;;2.08;100.00
13068;BME280;6600;51.362;6.686;2023-03-03T01:49:35;101935.94;;;2.08;100.00
13068;BME280;6600;51.362;6.686;2023-03-03T01:52:11;101928.72;;;2.10;100.00
13068;BME280;6600;51.362;6.686;2023-03-03T01:54:42;101914.94;;;2.07;100.00
13068;BME280;6600;51.362;6.686;2023-03-03T01:57:13;101922.09;;;1.95;100.00
13068;BME280;6600;51.362;6.686;2023-03-03T01:59:44;101925.44;;;1.97;100.00
13068;BME280;6600;51.362;6.686;2023-03-03T02:02:11;101918.41;;;1.86;100.00
13068;BME280;6600;51.362;6.686;2023-03-03T02:04:38;101927.19;;;1.87;100.00
13068;BME280;6600;51.362;6.686;2023-03-03T02:07:08;101926.28;;;1.97;100.00
13068;BME280;6600;51.362;6.686;2023-03-03T02:09:58;101913.78;;;1.99;100.00
13068;BME280;6600;51.362;6.686;2023-03-03T02:15:40;101911.06;;;1.90;100.00
13068;BME280;6600;51.362;6.686;2023-03-03T02:18:10;101910.16;;;1.80;100.00
13068;BME280;6600;51.362;6.686;2023-03-03T02:28:06;101919.50;;;1.84;100.00
13068;BME280;6600;51.362;6.686;2023-03-03T02:30:36;101919.19;;;1.98;100.00
13068;BME280;6600;51.362;6.686;2023-03-03T02:33:02;101921.81;;;1.98;100.00
13068;BME280;6600;51.362;6.686;2023-03-03T02:38:03;101924.47;;;1.98;100.00
13068;BME280;6600;51.362;6.686;2023-03-03T02:40:35;101922.88;;;1.86;100.00
13068;BME280;6600;51.362;6.686;2023-03-03T02:43:04;101923.84;;;1.85;100.00
13068;BME280;6600;51.362;6.686;2023-03-03T02:45:30;101918.81;;;1.82;100.00
13068;BME280;6600;51.362;6.686;2023-03-03T02:47:55;101928.66;;;1.80;100.00
13068;BME280;6600;51.362;6.686;2023-03-03T02:50:20;101927.44;;;1.84;100.00
13068;BME280;6600;51.362;6.686;2023-03-03T02:52:46;101929.50;;;1.80;100.00
13068;BME280;6600;51.362;6.686;2023-03-03T02:55:11;101932.03;;;1.82;100.00
13068;BME280;6600;51.362;6.686;2023-03-03T02:57:36;101930.47;;;1.79;100.00
13068;BME280;6600;51.362;6.686;2023-03-03T03:00:02;101929.56;;;1.90;100.00
13068;BME280;6600;51.362;6.686;2023-03-03T03:02:28;101934.84;;;1.90;100.00
13068;BME280;6600;51.362;6.686;2023-03-03T03:04:53;101937.31;;;1.82;100.00
13068;BME280;6600;51.362;6.686;2023-03-03T03:07:18;101929.38;;;1.82;100.00
13068;BME280;6600;51.362;6.686;2023-03-03T03:09:43;101932.03;;;1.82;100.00
13068;BME280;6600;51.362;6.686;2023-03-03T03:12:09;101931.13;;;1.72;100.00
13068;BME280;6600;51.362;6.686;2023-03-03T03:14:35;101928.03;;;1.67;100.00
13068;BME280;6600;51.362;6.686;2023-03-03T03:17:00;101930.06;;;1.63;100.00
13068;BME280;6600;51.362;6.686;2023-03-03T03:19:26;101932.03;;;1.61;100.00
13068;BME280;6600;51.362;6.686;2023-03-03T03:21:52;101937.03;;;1.64;100.00
13068;BME280;6600;51.362;6.686;2023-03-03T03:24:17;101944.38;;;1.61;100.00
13068;BME280;6600;51.362;6.686;2023-03-03T03:26:43;101944.91;;;1.55;100.00
13068;BME280;6600;51.362;6.686;2023-03-03T03:29:08;101949.16;;;1.67;100.00
13068;BME280;6600;51.362;6.686;2023-03-03T03:31:35;101945.34;;;1.60;100.00
13068;BME280;6600;51.362;6.686;2023-03-03T03:34:00;101949.59;;;1.51;100.00
13068;BME280;6600;51.362;6.686;2023-03-03T03:36:26;101959.59;;;1.47;100.00
13068;BME280;6600;51.362;6.686;2023-03-03T03:38:52;101964.09;;;1.57;100.00
13068;BME280;6600;51.362;6.686;2023-03-03T03:41:18;101955.72;;;1.51;100.00
13068;BME280;6600;51.362;6.686;2023-03-03T03:43:43;101954.63;;;1.54;100.00
13068;BME280;6600;51.362;6.686;2023-03-03T03:46:09;101955.84;;;1.50;100.00
13068;BME280;6600;51.362;6.686;2023-03-03T03:48:34;101961.00;;;1.51;100.00
13068;BME280;6600;51.362;6.686;2023-03-03T03:51:00;101960.41;;;1.48;100.00
13068;BME280;6600;51.362;6.686;2023-03-03T03:53:25;101968.47;;;1.46;100.00
13068;BME280;6600;51.362;6.686;2023-03-03T03:55:50;101958.41;;;1.40;100.00
13068;BME280;6600;51.362;6.686;2023-03-03T03:58:16;101954.78;;;1.41;100.00
13068;BME280;6600;51.362;6.686;2023-03-03T04:00:43;101945.91;;;1.42;100.00
13068;BME280;6600;51.362;6.686;2023-03-03T04:03:10;101947.34;;;1.46;100.00
13068;BME280;6600;51.362;6.686;2023-03-03T04:05:35;101949.75;;;1.38;100.00
13068;BME280;6600;51.362;6.686;2023-03-03T04:08:00;101950.47;;;1.40;100.00
13068;BME280;6600;51.362;6.686;2023-03-03T04:10:26;101953.84;;;1.31;100.00
13068;BME280;6600;51.362;6.686;2023-03-03T04:12:51;101977.16;;;1.37;100.00
13068;BME280;6600;51.362;6.686;2023-03-03T04:15:16;101970.19;;;1.36;100.00
13068;BME280;6600;51.362;6.686;2023-03-03T04:17:42;101959.13;;;1.31;100.00
13068;BME280;6600;51.362;6.686;2023-03-03T04:20:08;101972.31;;;1.42;100.00
13068;BME280;6600;51.362;6.686;2023-03-03T04:22:35;101966.28;;;1.51;100.00
13068;BME280;6600;51.362;6.686;2023-03-03T04:25:01;101967.84;;;1.54;100.00
13068;BME280;6600;51.362;6.686;2023-03-03T04:27:31;101969.63;;;1.53;100.00
13068;BME280;6600;51.362;6.686;2023-03-03T04:29:56;101969.13;;;1.60;100.00
13068;BME280;6600;51.362;6.686;2023-03-03T04:32:21;101954.94;;;1.61;100.00
13068;BME280;6600;51.362;6.686;2023-03-03T04:34:46;101954.69;;;1.64;100.00
13068;BME280;6600;51.362;6.686;2023-03-03T04:37:12;101965.25;;;1.64;100.00
13068;BME280;6600;51.362;6.686;2023-03-03T04:39:37;101965.84;;;1.67;100.00
13068;BME280;6600;51.362;6.686;2023-03-03T04:42:02;101971.72;;;1.71;100.00
13068;BME280;6600;51.362;6.686;2023-03-03T04:44:28;101956.13;;;1.68;100.00
13068;BME280;6600;51.362;6.686;2023-03-03T04:46:53;101962.56;;;1.75;100.00
13068;BME280;6600;51.362;6.686;2023-03-03T04:49:18;101964.75;;;1.70;100.00
13068;BME280;6600;51.362;6.686;2023-03-03T04:51:44;101965.91;;;1.77;100.00
13068;BME280;6600;51.362;6.686;2023-03-03T04:54:09;101968.19;;;1.81;100.00
13068;BME280;6600;51.362;6.686;2023-03-03T04:56:34;101965.91;;;1.77;100.00
13068;BME280;6600;51.362;6.686;2023-03-03T04:58:59;101976.47;;;1.77;100.00
13068;BME280;6600;51.362;6.686;2023-03-03T05:01:25;101977.97;;;1.70;100.00
13068;BME280;6600;51.362;6.686;2023-03-03T05:03:50;101978.44;;;1.75;100.00
13068;BME280;6600;51.362;6.686;2023-03-03T05:06:15;101982.03;;;1.74;100.00
13068;BME280;6600;51.362;6.686;2023-03-03T05:08:43;101978.84;;;1.59;100.00
13068;BME280;6600;51.362;6.686;2023-03-03T05:11:08;101981.88;;;1.55;100.00
13068;BME280;6600;51.362;6.686;2023-03-03T05:13:34;101984.81;;;1.40;100.00
13068;BME280;6600;51.362;6.686;2023-03-03T05:15:59;101981.19;;;1.41;100.00
13068;BME280;6600;51.362;6.686;2023-03-03T05:18:25;101979.78;;;1.37;100.00
13068;BME280;6600;51.362;6.686;2023-03-03T05:20:51;101991.03;;;1.50;100.00
13068;BME280;6600;51.362;6.686;2023-03-03T05:23:17;101971.81;;;1.48;100.00
13068;BME280;6600;51.362;6.686;2023-03-03T05:25:43;101977.84;;;1.39;100.00
13068;BME280;6600;51.362;6.686;2023-03-03T05:28:09;101979.06;;;1.35;100.00
13068;BME280;6600;51.362;6.686;2023-03-03T05:30:35;101976.16;;;1.38;100.00
13068;BME280;6600;51.362;6.686;2023-03-03T05:33:01;101980.47;;;1.50;100.00
13068;BME280;6600;51.362;6.686;2023-03-03T05:35:27;101973.84;;;1.45;100.00
13068;BME280;6600;51.362;6.686;2023-03-03T05:37:53;101986.69;;;1.49;100.00
13068;BME280;6600;51.362;6.686;2023-03-03T05:40:19;101986.91;;;1.58;100.00
13068;BME280;6600;51.362;6.686;2023-03-03T05:42:44;101983.53;;;1.56;100.00
13068;BME280;6600;51.362;6.686;2023-03-03T05:45:10;101980.19;;;1.53;100.00
13068;BME280;6600;51.362;6.686;2023-03-03T05:47:36;101987.53;;;1.50;100.00
13068;BME280;6600;51.362;6.686;2023-03-03T05:50:02;101981.16;;;1.52;100.00
13068;BME280;6600;51.362;6.686;2023-03-03T05:52:27;101982.13;;;1.51;100.00
13068;BME280;6600;51.362;6.686;2023-03-03T05:54:53;101981.91;;;1.43;100.00
13068;BME280;6600;51.362;6.686;2023-03-03T05:57:18;101981.25;;;1.30;100.00
13068;BME280;6600;51.362;6.686;2023-03-03T05:59:43;101983.38;;;1.36;100.00
13068;BME280;6600;51.362;6.686;2023-03-03T06:02:09;101987.47;;;1.29;100.00
13068;BME280;6600;51.362;6.686;2023-03-03T06:04:34;101994.19;;;1.33;100.00
13068;BME280;6600;51.362;6.686;2023-03-03T06:07:00;101999.59;;;1.32;100.00
13068;BME280;6600;51.362;6.686;2023-03-03T06:09:25;101999.97;;;1.27;100.00
13068;BME280;6600;51.362;6.686;2023-03-03T06:11:51;102005.47;;;1.35;100.00
13068;BME280;6600;51.362;6.686;2023-03-03T06:14:20;101998.72;;;1.42;100.00
13068;BME280;6600;51.362;6.686;2023-03-03T06:16:46;102007.81;;;1.49;100.00
13068;BME280;6600;51.362;6.686;2023-03-03T06:19:12;102000.63;;;1.51;100.00
13068;BME280;6600;51.362;6.686;2023-03-03T06:21:37;102011.06;;;1.53;100.00
13068;BME280;6600;51.362;6.686;2023-03-03T06:24:04;102011.19;;;1.51;100.00
13068;BME280;6600;51.362;6.686;2023-03-03T06:26:30;102014.81;;;1.39;100.00
13068;BME280;6600;51.362;6.686;2023-03-03T06:28:56;102023.69;;;1.38;100.00
13068;BME280;6600;51.362;6.686;2023-03-03T06:31:21;102024.03;;;1.45;100.00
13068;BME280;6600;51.362;6.686;2023-03-03T06:33:47;102032.31;;;1.51;100.00
13068;BME280;6600;51.362;6.686;2023-03-03T06:36:12;102034.72;;;1.55;100.00
13068;BME280;6600;51.362;6.686;2023-03-03T06:38:37;102033.09;;;1.63;100.00
13068;BME280;6600;51.362;6.686;2023-03-03T06:41:03;102027.72;;;1.65;100.00
13068;BME280;6600;51.362;6.686;2023-03-03T06:43:32;102038.72;;;1.70;100.00
13068;BME280;6600;51.362;6.686;2023-03-03T06:45:57;102044.00;;;1.70;100.00
13068;BME280;6600;51.362;6.686;2023-03-03T06:48:23;102043.94;;;1.60;100.00
13068;BME280;6600;51.362;6.686;2023-03-03T06:50:48;102046.22;;;1.65;100.00
13068;BME280;6600;51.362;6.686;2023-03-03T06:53:15;102047.38;;;1.72;100.00
13068;BME280;6600;51.362;6.686;2023-03-03T06:55:41;102051.69;;;1.73;100.00
13068;BME280;6600;51.362;6.686;2023-03-03T06:58:17;102053.63;;;1.71;100.00
13068;BME280;6600;51.362;6.686;2023-03-03T07:00:45;102052.19;;;1.67;100.00
13068;BME280;6600;51.362;6.686;2023-03-03T07:03:20;102047.16;;;1.64;100.00
13068;BME280;6600;51.362;6.686;2023-03-03T07:05:47;102053.16;;;1.66;100.00
13068;BME280;6600;51.362;6.686;2023-03-03T07:08:15;102055.09;;;1.64;100.00
13068;BME280;6600;51.362;6.686;2023-03-03T07:10:41;102052.81;;;1.59;100.00
13068;BME280;6600;51.362;6.686;2023-03-03T07:13:24;102056.19;;;1.61;100.00
13068;BME280;6600;51.362;6.686;2023-03-03T07:15:52;102051.75;;;1.62;100.00
13068;BME280;6600;51.362;6.686;2023-03-03T07:18:37;102063.59;;;1.67;100.00
13068;BME280;6600;51.362;6.686;2023-03-03T07:21:18;102054.84;;;1.67;100.00
13068;BME280;6600;51.362;6.686;2023-03-03T07:23:46;102061.44;;;1.72;100.00
13068;BME280;6600;51.362;6.686;2023-03-03T07:26:17;102064.41;;;1.79;100.00
13068;BME280;6600;51.362;6.686;2023-03-03T07:28:53;102071.34;;;1.80;100.00
13068;BME280;6600;51.362;6.686;2023-03-03T07:33:51;102063.31;;;1.81;100.00
13068;BME280;6600;51.362;6.686;2023-03-03T07:36:28;102068.00;;;1.78;100.00
13068;BME280;6600;51.362;6.686;2023-03-03T07:38:59;102072.78;;;1.84;100.00
13068;BME280;6600;51.362;6.686;2023-03-03T07:41:26;102079.69;;;1.75;100.00
13068;BME280;6600;51.362;6.686;2023-03-03T07:43:53;102071.34;;;1.80;100.00
13068;BME280;6600;51.362;6.686;2023-03-03T07:46:35;102090.34;;;1.85;100.00
13068;BME280;6600;51.362;6.686;2023-03-03T07:49:29;102092.03;;;1.86;100.00
13068;BME280;6600;51.362;6.686;2023-03-03T07:51:58;102094.53;;;1.87;100.00
13068;BME280;6600;51.362;6.686;2023-03-03T07:54:42;102104.38;;;1.85;100.00
13068;BME280;6600;51.362;6.686;2023-03-03T07:59:48;102103.75;;;1.93;100.00
13068;BME280;6600;51.362;6.686;2023-03-03T08:05:00;102105.06;;;1.98;100.00
13068;BME280;6600;51.362;6.686;2023-03-03T08:07:29;102115.50;;;2.00;100.00
13068;BME280;6600;51.362;6.686;2023-03-03T08:09:59;102108.28;;;2.02;100.00
13068;BME280;6600;51.362;6.686;2023-03-03T08:12:37;102115.84;;;2.07;100.00
13068;BME280;6600;51.362;6.686;2023-03-03T08:15:18;102120.28;;;2.06;100.00
13068;BME280;6600;51.362;6.686;2023-03-03T08:17:45;102128.22;;;2.06;100.00
13068;BME280;6600;51.362;6.686;2023-03-03T08:20:45;102125.31;;;2.09;100.00
13068;BME280;6600;51.362;6.686;2023-03-03T08:23:12;102124.81;;;2.15;100.00
13068;BME280;6600;51.362;6.686;2023-03-03T08:25:38;102125.28;;;2.20;100.00
13068;BME280;6600;51.362;6.686;2023-03-03T08:28:05;102125.22;;;2.31;100.00
13068;BME280;6600;51.362;6.686;2023-03-03T08:30:30;102136.78;;;2.30;100.00
13068;BME280;6600;51.362;6.686;2023-03-03T08:32:56;102132.19;;;2.32;100.00
13068;BME280;6600;51.362;6.686;2023-03-03T08:35:21;102127.16;;;2.29;100.00
13068;BME280;6600;51.362;6.686;2023-03-03T08:37:47;102133.63;;;2.36;100.00
13068;BME280;6600;51.362;6.686;2023-03-03T08:40:12;102141.03;;;2.42;100.00
13068;BME280;6600;51.362;6.686;2023-03-03T08:42:37;102145.09;;;2.46;100.00
13068;BME280;6600;51.362;6.686;2023-03-03T08:45:03;102152.09;;;2.47;100.00
13068;BME280;6600;51.362;6.686;2023-03-03T08:47:28;102152.09;;;2.47;100.00
13068;BME280;6600;51.362;6.686;2023-03-03T08:49:54;102152.09;;;2.47;100.00
13068;BME280;6600;51.362;6.686;2023-03-03T08:52:19;102150.59;;;2.54;100.00
13068;BME280;6600;51.362;6.686;2023-03-03T08:54:45;102149.03;;;2.52;100.00
13068;BME280;6600;51.362;6.686;2023-03-03T08:57:10;102156.28;;;2.50;100.00
13068;BME280;6600;51.362;6.686;2023-03-03T08:59:36;102155.16;;;2.52;100.00
13068;BME280;6600;51.362;6.686;2023-03-03T09:02:04;102153.00;;;2.58;100.00
13068;BME280;6600;51.362;6.686;2023-03-03T09:04:29;102156.84;;;2.53;100.00
13068;BME280;6600;51.362;6.686;2023-03-03T09:06:55;102161.09;;;2.66;100.00
13068;BME280;6600;51.362;6.686;2023-03-03T09:09:20;102167.72;;;2.71;100.00
13068;BME280;6600;51.362;6.686;2023-03-03T09:11:45;102160.59;;;2.72;100.00
13068;BME280;6600;51.362;6.686;2023-03-03T09:14:16;102166.88;;;2.71;100.00
13068;BME280;6600;51.362;6.686;2023-03-03T09:16:52;102167.56;;;2.73;100.00
13068;BME280;6600;51.362;6.686;2023-03-03T09:19:22;102162.53;;;2.70;100.00
13068;BME280;6600;51.362;6.686;2023-03-03T09:21:50;102168.41;;;2.73;100.00
13068;BME280;6600;51.362;6.686;2023-03-03T09:24:29;102168.72;;;2.80;100.00
13068;BME280;6600;51.362;6.686;2023-03-03T09:26:56;102168.06;;;2.87;100.00
13068;BME280;6600;51.362;6.686;2023-03-03T09:29:30;102166.31;;;2.97;100.00
13068;BME280;6600;51.362;6.686;2023-03-03T09:32:01;102176.59;;;2.91;100.00
13068;BME280;6600;51.362;6.686;2023-03-03T09:34:41;102169.25;;;2.94;100.00
13068;BME280;6600;51.362;6.686;2023-03-03T09:37:19;102178.13;;;2.93;100.00
13068;BME280;6600;51.362;6.686;2023-03-03T09:39:49;102176.03;;;2.87;100.00
13068;BME280;6600;51.362;6.686;2023-03-03T09:42:36;102181.09;;;3.00;100.00
13068;BME280;6600;51.362;6.686;2023-03-03T09:45:30;102186.94;;;2.94;100.00
13068;BME280;6600;51.362;6.686;2023-03-03T09:48:32;102187.56;;;3.07;100.00
13068;BME280;6600;51.362;6.686;2023-03-03T09:53:59;102186.06;;;3.14;100.00
13068;BME280;6600;51.362;6.686;2023-03-03T09:56:49;102183.25;;;3.06;100.00
13068;BME280;6600;51.362;6.686;2023-03-03T09:59:25;102189.25;;;3.08;100.00
13068;BME280;6600;51.362;6.686;2023-03-03T10:02:34;102197.38;;;3.16;100.00
13068;BME280;6600;51.362;6.686;2023-03-03T10:05:25;102204.97;;;3.30;100.00
13068;BME280;6600;51.362;6.686;2023-03-03T10:16:21;102197.47;;;3.35;100.00
13068;BME280;6600;51.362;6.686;2023-03-03T10:18:57;102198.56;;;3.33;100.00
13068;BME280;6600;51.362;6.686;2023-03-03T10:21:34;102201.81;;;3.36;100.00
13068;BME280;6600;51.362;6.686;2023-03-03T10:30:12;102206.91;;;3.58;100.00
13068;BME280;6600;51.362;6.686;2023-03-03T10:33:00;102200.09;;;3.66;100.00
13068;BME280;6600;51.362;6.686;2023-03-03T10:35:45;102204.13;;;3.60;100.00
13068;BME280;6600;51.362;6.686;2023-03-03T10:38:32;102203.19;;;3.71;100.00
13068;BME280;6600;51.362;6.686;2023-03-03T10:43:49;102205.31;;;3.46;100.00
13068;BME280;6600;51.362;6.686;2023-03-03T10:46:38;102210.53;;;3.58;100.00
13068;BME280;6600;51.362;6.686;2023-03-03T10:57:51;102209.03;;;3.65;100.00
13068;BME280;6600;51.362;6.686;2023-03-03T11:00:28;102213.78;;;3.71;100.00
13068;BME280;6600;51.362;6.686;2023-03-03T11:06:17;102203.47;;;3.68;100.00
13068;BME280;6600;51.362;6.686;2023-03-03T11:33:21;102201.03;;;3.95;98.49
13068;BME280;6600;51.362;6.686;2023-03-03T11:38:48;102189.59;;;4.04;98.58
13068;BME280;6600;51.362;6.686;2023-03-03T11:41:25;102188.44;;;3.97;99.51
13068;BME280;6600;51.362;6.686;2023-03-03T11:44:02;102186.38;;;4.00;99.72
13068;BME280;6600;51.362;6.686;2023-03-03T11:46:59;102183.47;;;4.13;100.00
13068;BME280;6600;51.362;6.686;2023-03-03T11:55:18;102174.50;;;4.14;99.59
13068;BME280;6600;51.362;6.686;2023-03-03T11:57:49;102179.81;;;4.14;99.53
13068;BME280;6600;51.362;6.686;2023-03-03T12:09:29;102168.69;;;4.20;98.94
13068;BME280;6600;51.362;6.686;2023-03-03T12:12:13;102170.38;;;4.31;98.81
13068;BME280;6600;51.362;6.686;2023-03-03T12:23:19;102154.44;;;4.40;97.81
13068;BME280;6600;51.362;6.686;2023-03-03T12:26:10;102158.50;;;4.44;98.47
13068;BME280;6600;51.362;6.686;2023-03-03T12:41:53;102163.03;;;4.81;96.39
13068;BME280;6600;51.362;6.686;2023-03-03T12:47:24;102150.72;;;4.80;96.11
13068;BME280;6600;51.362;6.686;2023-03-03T12:55:24;102150.34;;;4.75;95.82
13068;BME280;6600;51.362;6.686;2023-03-03T12:58:06;102152.16;;;4.74;96.20
13068;BME280;6600;51.362;6.686;2023-03-03T13:00:58;102157.06;;;4.79;95.59
13068;BME280;6600;51.362;6.686;2023-03-03T13:03:54;102158.59;;;4.62;96.31
13068;BME280;6600;51.362;6.686;2023-03-03T13:06:28;102149.38;;;4.66;96.55
13068;BME280;6600;51.362;6.686;2023-03-03T13:12:09;102155.59;;;4.94;94.71
13068;BME280;6600;51.362;6.686;2023-03-03T13:19:44;102149.78;;;5.18;94.50
13068;BME280;6600;51.362;6.686;2023-03-03T13:22:32;102150.31;;;5.31;93.73
13068;BME280;6600;51.362;6.686;2023-03-03T13:25:07;102148.78;;;5.28;93.11
13068;BME280;6600;51.362;6.686;2023-03-03T13:27:44;102146.34;;;5.44;92.80
13068;BME280;6600;51.362;6.686;2023-03-03T13:30:19;102143.28;;;5.39;92.72
13068;BME280;6600;51.362;6.686;2023-03-03T13:32:58;102144.47;;;5.27;92.23
13068;BME280;6600;51.362;6.686;2023-03-03T13:35:29;102146.72;;;5.22;93.19
13068;BME280;6600;51.362;6.686;2023-03-03T13:37:56;102138.97;;;4.92;94.09
13068;BME280;6600;51.362;6.686;2023-03-03T13:43:18;102137.81;;;5.04;93.84
13068;BME280;6600;51.362;6.686;2023-03-03T13:50:57;102136.75;;;5.24;93.41
13068;BME280;6600;51.362;6.686;2023-03-03T14:02:28;102124.78;;;5.47;92.14
13068;BME280;6600;51.362;6.686;2023-03-03T14:04:53;102128.28;;;5.66;91.05
13068;BME280;6600;51.362;6.686;2023-03-03T14:07:35;102120.03;;;5.69;90.99
13068;BME280;6600;51.362;6.686;2023-03-03T14:10:17;102124.06;;;5.73;91.39
13068;BME280;6600;51.362;6.686;2023-03-03T14:15:21;102117.00;;;5.81;90.62
13068;BME280;6600;51.362;6.686;2023-03-03T14:20:31;102111.13;;;5.87;89.76
13068;BME280;6600;51.362;6.686;2023-03-03T14:23:13;102110.22;;;5.96;89.93
13068;BME280;6600;51.362;6.686;2023-03-03T14:25:57;102108.47;;;6.05;89.68
13068;BME280;6600;51.362;6.686;2023-03-03T14:28:26;102105.41;;;6.00;88.94
13068;BME280;6600;51.362;6.686;2023-03-03T14:30:54;102099.19;;;6.09;89.22
13068;BME280;6600;51.362;6.686;2023-03-03T14:33:22;102104.13;;;6.22;89.15
13068;BME280;6600;51.362;6.686;2023-03-03T14:35:59;102094.31;;;6.22;88.96
13068;BME280;6600;51.362;6.686;2023-03-03T14:41:39;102092.56;;;6.31;88.64
13068;BME280;6600;51.362;6.686;2023-03-03T14:49:32;102079.72;;;6.26;87.99
13068;BME280;6600;51.362;6.686;2023-03-03T14:54:40;102075.22;;;6.27;88.59
13068;BME280;6600;51.362;6.686;2023-03-03T14:57:14;102074.59;;;6.33;88.38
13068;BME280;6600;51.362;6.686;2023-03-03T15:02:23;102072.81;;;6.41;88.01
13068;BME280;6600;51.362;6.686;2023-03-03T15:05:10;102069.19;;;6.42;87.98
13068;BME280;6600;51.362;6.686;2023-03-03T15:07:37;102076.50;;;6.40;88.06
13068;BME280;6600;51.362;6.686;2023-03-03T15:10:05;102071.41;;;6.29;88.14
13068;BME280;6600;51.362;6.686;2023-03-03T15:12:37;102066.91;;;6.47;87.95
13068;BME280;6600;51.362;6.686;2023-03-03T15:17:38;102065.31;;;6.63;87.59
13068;BME280;6600;51.362;6.686;2023-03-03T15:28:12;102048.72;;;6.69;88.17
13068;BME280;6600;51.362;6.686;2023-03-03T15:31:06;102044.44;;;6.76;87.95
13068;BME280;6600;51.362;6.686;2023-03-03T15:36:32;102042.00;;;6.90;87.48
13068;BME280;6600;51.362;6.686;2023-03-03T15:41:56;102033.81;;;6.84;88.03
13068;BME280;6600;51.362;6.686;2023-03-03T15:44:37;102036.47;;;6.84;88.02
13068;BME280;6600;51.362;6.686;2023-03-03T15:50:11;102037.50;;;6.91;87.98
13068;BME280;6600;51.362;6.686;2023-03-03T15:57:55;102030.50;;;6.90;88.40
13068;BME280;6600;51.362;6.686;2023-03-03T16:00:36;102024.50;;;6.88;87.81
13068;BME280;6600;51.362;6.686;2023-03-03T16:04:04;102027.19;;;6.88;88.25
13068;BME280;6600;51.362;6.686;2023-03-03T16:06:10;102028.22;;;6.95;88.30
13068;BME280;6600;51.362;6.686;2023-03-03T16:11:56;102023.00;;;6.85;88.47
13068;BME280;6600;51.362;6.686;2023-03-03T16:28:22;102026.22;;;6.97;88.20
13068;BME280;6600;51.362;6.686;2023-03-03T16:31:05;102029.38;;;6.92;89.08
13068;BME280;6600;51.362;6.686;2023-03-03T16:33:53;102029.88;;;6.96;88.62
13068;BME280;6600;51.362;6.686;2023-03-03T16:36:29;102042.53;;;6.94;89.25
13068;BME280;6600;51.362;6.686;2023-03-03T16:41:50;102035.84;;;6.90;89.47
13068;BME280;6600;51.362;6.686;2023-03-03T16:44:29;102041.47;;;6.87;89.64
13068;BME280;6600;51.362;6.686;2023-03-03T16:47:38;102040.25;;;6.73;90.38
13068;BME280;6600;51.362;6.686;2023-03-03T16:52:59;102045.16;;;6.60;90.22
13068;BME280;6600;51.362;6.686;2023-03-03T16:58:54;102044.31;;;6.51;91.69
13068;BME280;6600;51.362;6.686;2023-03-03T17:04:29;102056.81;;;6.33;93.15
13068;BME280;6600;51.362;6.686;2023-03-03T17:07:03;102052.47;;;6.32;93.18
13068;BME280;6600;51.362;6.686;2023-03-03T17:10:01;102055.59;;;6.28;93.81
13068;BME280;6600;51.362;6.686;2023-03-03T17:16:04;102054.84;;;6.00;94.70
13068;BME280;6600;51.362;6.686;2023-03-03T17:21:23;102062.97;;;5.81;95.65
13068;BME280;6600;51.362;6.686;2023-03-03T17:24:03;102054.91;;;5.73;95.81